Historyczne dane pomiarowe

Dodano dane terminowe – wersja testowa.

Dane z okresu 1951-2019

Wersja bazy: 1.34 [2019-03-16, lista zmian], aktualizacja planowana na 2019-04-15

Dane meteo z obszaru Polski uzyskane na podstawie danych udostępnionych przez Instytut Meteorologii i Gospodarki Wodnej – Państwowy Instytut Badawczy.

 

Wybierz Datę:    

       

TemperaturaWilgotnośćWiatrCiśnienieOpadyŚniegCzas trwania zjawisk
 Stacja t tx tn tng RH VA  wxwx mslp ppp RRR   cm mm wxwxwxwxwxwxwx
1986-06-13 17.6 22.5 14.3- 86.3- 8.0 4.7---- 25.2------------
1986-06-14 17.7 24.0 12.8- 85.5- 6.0 0.0---- 0.0------------
1986-06-15 18.9 24.0 15.2- 82.0- 5.3 2.7---- 0.0------------
1986-06-16 17.0 25.1 10.5- 78.5- 2.7 1.0---- 0.0------------
1986-06-17 16.6 26.1 8.8- 77.3- 2.7 0.0---- 0.0------------
1986-06-18 18.8 29.1 9.3- 76.3- 4.0 0.0---- 0.0------------
1986-06-19 18.8 28.6 11.8- 80.0- 5.3 1.0---- 2.5------------
1986-06-20 17.5 27.1 13.3- 87.5- 8.0 2.0---- 1.2------------
1986-06-21 16.0 20.3 13.3- 96.0- 8.0 2.7---- 2.5------------
1986-06-22 13.5 17.7 11.8- 83.0- 6.7 1.0---- 0.0------------
1986-06-23 10.8 15.2 6.8- 79.5- 6.7 1.0---- 0.0------------
1986-06-24 10.7 18.4 2.3- 71.0- 3.3 2.7---- 0.0------------
1986-06-25 10.6 17.0 2.8- 79.8- 6.7 1.7---- 0.0------------
1986-06-26 13.7 19.3 7.3- 70.0- 4.0 3.0---- 0.0------------
1986-06-27 15.2 21.0 9.0- 70.8- 7.3 3.7---- 0.0------------
1986-06-28 15.0 22.4 8.8- 82.5- 7.3 1.3---- 1.5------------
1986-06-29 14.4 21.0 8.3- 83.5- 8.0 8.0---- 30.3------------
1986-06-30 13.0 17.7 9.9- 91.3- 8.0 1.7---- 0.2------------
1986-07-01 15.7 21.5 8.3- 74.5- 5.3 2.0---- 0.0------------
1986-07-02 15.5 23.0 8.4- 77.0- 5.3 1.0---- 0.0------------
1986-07-03 16.0 26.6 6.8- 74.3- 2.0 0.0---- 0.0------------
1986-07-04 16.3 26.7 8.3- 80.3- 4.0 0.0---- 0.3------------
1986-07-05 17.8 27.1 9.3- 78.5- 6.7 0.7---- 0.0------------
1986-07-06 19.0 28.6 10.3- 76.8- 2.7 0.7---- 0.0------------
1986-07-07 17.1 23.5 12.3- 81.3- 7.3 2.0---- 18.3------------
1986-07-08 12.0 19.0 10.9- 97.5- 8.0 0.0---- 9.5------------
1986-07-09 11.6 17.5 9.3- 78.5- 8.0 3.3---- 2.6------------
1986-07-10 9.0 14.5 4.8- 98.5- 8.0 1.3---- 7.2------------
1986-07-11 10.3 15.5 5.3- 90.8- 8.0 2.7---- 1.2------------
1986-07-12 9.8 16.0 3.3- 81.8- 7.3 2.0---- 0.0------------
220.4 ms

 

Źródłem pochodzenia danych jest Instytut Meteorologii i Gospodarki Wodnej – Państwowy Instytut Badawczy. Dane Instytutu Meteorologii i Gospodarki Wodnej – Państwowego Instytutu Badawczego zostały przetworzone.

Dane źródłowe można odnaleźć na stronie https://dane.imgw.pl